Time;durP1;ratioP1;P1;durP2;ratioP2;P2;SDS_P1;SDS_P2;PMS_P1;PMS_P2;Temp;Humidity;BMP_temperature;BMP_pressure;BME280_temperature;BME280_humidity;BME280_pressure;Samples;Min_cycle;Max_cycle;Signal;HPM_P1;HPM_P2
2022/06/28 00:00:45;;;;;;;10.87;9.73;;;;;;;22.60;69.44;100859.23;1688954;82;21154;-75
2022/06/28 00:03:12;;;;;;;11.30;9.40;;;;;;;22.58;69.69;100857.42;1708000;83;21619;-75
2022/06/28 00:05:39;;;;;;;10.60;9.53;;;;;;;22.56;70.02;100856.38;1698574;82;21066;-75
2022/06/28 00:08:06;;;;;;;11.77;10.57;;;;;;;22.56;70.31;100855.01;1692738;83;21532;-75
2022/06/28 00:10:33;;;;;;;11.50;10.10;;;;;;;22.55;70.34;100860.80;1707369;82;21062;-74
2022/06/28 00:12:59;;;;;;;10.67;9.60;;;;;;;22.53;70.30;100855.67;1708105;83;21126;-75
2022/06/28 00:18:12;;;;;;;11.10;10.00;;;;;;;22.49;70.05;100850.66;1722208;82;21078;-75
2022/06/28 00:20:39;;;;;;;11.43;10.33;;;;;;;22.48;69.83;100846.35;1709331;82;21034;-74
2022/06/28 00:23:06;;;;;;;10.90;9.77;;;;;;;22.46;69.63;100845.88;1707664;83;21158;-76
2022/06/28 00:25:34;;;;;;;10.57;9.47;;;;;;;22.46;69.51;100851.31;1689983;83;21034;-74
2022/06/28 00:28:01;;;;;;;10.53;9.53;;;;;;;22.42;69.50;100844.38;1708751;82;21312;-74
2022/06/28 00:30:28;;;;;;;10.80;9.80;;;;;;;22.42;69.43;100840.30;1703990;83;20979;-74
2022/06/28 00:32:55;;;;;;;11.00;9.70;;;;;;;22.42;69.31;100844.95;1695681;83;21046;-74
2022/06/28 00:35:21;;;;;;;11.47;10.27;;;;;;;22.42;69.22;100845.73;1689686;83;21198;-73
2022/06/28 00:37:48;;;;;;;10.97;9.87;;;;;;;22.41;69.15;100837.34;1702555;82;21034;-73
2022/06/28 00:40:16;;;;;;;10.73;9.70;;;;;;;22.42;69.02;100843.58;1706904;83;21237;-74
2022/06/28 00:42:43;;;;;;;10.70;9.53;;;;;;;22.41;68.81;100841.43;1692031;83;21098;-74
2022/06/28 00:45:12;;;;;;;11.20;10.10;;;;;;;22.38;68.57;100842.66;1689647;83;21022;-73
2022/06/28 00:47:39;;;;;;;11.20;10.07;;;;;;;22.37;68.39;100843.77;1702530;82;21057;-73
2022/06/28 00:50:08;;;;;;;11.03;9.90;;;;;;;22.35;68.29;100839.23;1709463;82;20980;-73
2022/06/28 00:52:38;;;;;;;11.63;9.70;;;;;;;22.34;68.29;100837.08;1693180;83;22193;-73
2022/06/28 00:55:05;;;;;;;11.63;10.43;;;;;;;22.36;68.47;100843.53;1690844;83;21573;-74
2022/06/28 00:57:33;;;;;;;12.50;10.43;;;;;;;22.36;68.78;100842.17;1709222;82;21086;-74
2022/06/28 00:59:59;;;;;;;12.00;10.87;;;;;;;22.37;68.99;100845.12;1691860;83;22348;-73
2022/06/28 01:02:25;;;;;;;12.23;10.97;;;;;;;22.36;69.20;100843.53;1707756;83;21054;-74
2022/06/28 01:04:52;;;;;;;12.20;11.00;;;;;;;22.34;69.23;100849.86;1700081;83;21660;-75
2022/06/28 01:07:19;;;;;;;11.47;10.33;;;;;;;22.32;69.25;100849.41;1714769;82;21019;-74
2022/06/28 01:09:45;;;;;;;12.27;10.97;;;;;;;22.29;69.31;100850.86;1704576;83;21635;-74
2022/06/28 01:12:12;;;;;;;12.23;10.97;;;;;;;22.26;69.45;100846.64;1704485;83;21537;-74
2022/06/28 01:14:39;;;;;;;12.57;11.30;;;;;;;22.21;69.65;100847.07;1694313;83;21026;-74
2022/06/28 01:17:14;;;;;;;12.07;10.87;;;;;;;22.21;69.81;100851.69;1702468;83;21666;-76
2022/06/28 01:19:45;;;;;;;13.08;11.35;;;;;;;22.19;69.93;100844.44;1707852;83;28835;-74
2022/06/28 01:22:17;;;;;;;12.40;11.20;;;;;;;22.17;69.92;100842.03;1688273;83;21045;-73
2022/06/28 01:24:43;;;;;;;12.17;10.83;;;;;;;22.16;69.87;100839.08;1693983;83;21648;-74
2022/06/28 01:27:12;;;;;;;12.67;11.57;;;;;;;22.14;69.84;100845.37;1711360;82;21109;-75
2022/06/28 01:29:38;;;;;;;12.43;11.33;;;;;;;22.11;69.82;100843.33;1686204;84;21083;-74
2022/06/28 01:32:26;;;;;;;13.73;11.50;;;;;;;22.06;69.99;100840.78;1699402;83;21672;-74
2022/06/28 01:34:54;;;;;;;13.40;12.00;;;;;;;22.04;70.14;100839.51;1687332;83;21059;-74
2022/06/28 01:37:23;;;;;;;13.87;11.50;;;;;;;22.01;70.13;100843.67;1709480;83;21923;-72
2022/06/28 01:39:50;;;;;;;12.50;11.30;;;;;;;21.98;70.10;100845.69;1708756;82;21078;-74
2022/06/28 01:42:17;;;;;;;12.70;11.40;;;;;;;21.95;70.11;100843.65;1689900;83;22161;-74
2022/06/28 01:44:45;;;;;;;12.87;11.67;;;;;;;21.95;70.20;100840.92;1705646;82;21063;-74
2022/06/28 01:47:24;;;;;;;12.40;11.10;;;;;;;21.94;70.29;100836.59;1704746;83;21112;-73
2022/06/28 01:50:01;;;;;;;12.07;10.87;;;;;;;21.94;70.39;100840.10;1698983;82;21085;-74
2022/06/28 01:52:30;;;;;;;11.77;10.67;;;;;;;21.94;70.43;100843.39;1700386;83;21050;-74
2022/06/28 01:54:58;;;;;;;11.90;10.70;;;;;;;21.96;70.43;100835.72;1705853;82;21139;-74
2022/06/28 01:57:25;;;;;;;12.20;11.00;;;;;;;21.97;70.48;100843.53;1707572;83;20972;-74
2022/06/28 01:59:56;;;;;;;12.35;11.05;;;;;;;22.00;70.50;100840.73;1707769;84;21063;-74
2022/06/28 02:02:32;;;;;;;11.57;10.57;;;;;;;22.02;70.50;100837.13;1693929;84;21059;-73
2022/06/28 02:05:18;;;;;;;12.17;10.97;;;;;;;22.06;70.39;100833.98;1641473;86;21103;-74
2022/06/28 02:07:49;;;;;;;11.87;10.60;;;;;;;22.09;70.25;100839.34;1670317;85;21539;-74
2022/06/28 02:10:18;;;;;;;12.00;10.77;;;;;;;22.10;70.15;100834.13;1669466;82;21066;-75
2022/06/28 02:12:47;;;;;;;12.78;11.43;;;;;;;22.11;70.08;100838.43;1713714;81;21399;-74
2022/06/28 02:15:14;;;;;;;11.70;10.53;;;;;;;22.11;70.06;100839.25;1703958;81;20965;-75
2022/06/28 02:17:43;;;;;;;12.40;11.17;;;;;;;22.11;70.04;100838.43;1703506;82;21026;-73
2022/06/28 02:20:12;;;;;;;11.80;10.70;;;;;;;22.12;70.14;100842.20;1706395;82;21273;-73
2022/06/28 02:22:39;;;;;;;11.93;10.83;;;;;;;22.12;70.17;100838.12;1700642;82;21128;-73
2022/06/28 02:25:08;;;;;;;11.53;10.33;;;;;;;22.15;70.18;100834.77;1698329;82;21548;-73
2022/06/28 02:27:35;;;;;;;12.03;10.83;;;;;;;22.16;70.17;100836.36;1699311;82;22278;-74
2022/06/28 02:30:02;;;;;;;11.20;10.10;;;;;;;22.14;70.26;100837.20;1701374;82;21086;-73
2022/06/28 02:32:29;;;;;;;12.13;10.83;;;;;;;22.13;70.25;100835.62;1709695;82;21079;-74
2022/06/28 02:40:26;;;;;;;10.07;9.07;;;;;;;22.15;70.10;100846.19;1703153;82;21058;-73
2022/06/28 02:42:56;;;;;;;9.87;8.97;;;;;;;22.12;70.22;100840.84;1699839;82;21064;-73
2022/06/28 02:45:25;;;;;;;10.10;9.10;;;;;;;22.09;70.37;100839.34;1699169;82;21297;-73
2022/06/28 02:47:51;;;;;;;10.00;9.00;;;;;;;22.07;70.52;100847.02;1699505;82;21125;-73
2022/06/28 02:50:19;;;;;;;11.47;10.27;;;;;;;22.06;70.67;100842.14;1704283;82;21032;-73
2022/06/28 02:52:46;;;;;;;10.93;9.83;;;;;;;22.09;70.86;100842.85;1700685;82;21549;-73
2022/06/28 02:55:13;;;;;;;11.53;10.30;;;;;;;22.14;70.95;100841.86;1699245;82;22559;-73
2022/06/28 02:57:42;;;;;;;11.50;10.40;;;;;;;22.19;71.11;100839.78;1700421;82;21776;-73
2022/06/28 03:00:13;;;;;;;12.10;10.90;;;;;;;22.27;71.31;100839.50;1698840;82;21035;-74
2022/06/28 03:02:41;;;;;;;13.03;11.83;;;;;;;22.36;71.39;100842.17;1700227;82;21184;-74
2022/06/28 03:05:11;;;;;;;13.43;12.03;;;;;;;22.42;71.34;100832.12;1700091;82;21581;-74
2022/06/28 03:07:39;;;;;;;13.50;12.20;;;;;;;22.51;71.12;100840.25;1700728;82;21106;-74
2022/06/28 03:10:07;;;;;;;13.63;12.33;;;;;;;22.55;70.89;100841.17;1700414;81;21493;-74
2022/06/28 03:12:36;;;;;;;13.20;12.00;;;;;;;22.66;70.59;100844.30;1700034;82;21082;-74
2022/06/28 03:15:02;;;;;;;14.33;12.10;;;;;;;22.74;70.25;100842.62;1700654;82;21097;-74
2022/06/28 03:17:32;;;;;;;13.00;11.70;;;;;;;22.82;69.81;100837.13;1708038;82;21085;-75
2022/06/28 03:19:59;;;;;;;13.37;12.07;;;;;;;22.92;69.62;100839.44;1706465;84;21094;-74
2022/06/28 03:22:25;;;;;;;13.20;12.03;;;;;;;23.02;69.49;100839.63;1684105;84;21197;-73
2022/06/28 03:24:52;;;;;;;13.23;11.87;;;;;;;23.15;69.15;100833.67;1728666;80;21015;-74
2022/06/28 03:27:20;;;;;;;13.23;12.07;;;;;;;23.24;68.69;100837.69;1735118;80;21608;-74
2022/06/28 03:29:47;;;;;;;12.73;11.53;;;;;;;23.31;68.21;100837.36;1737665;81;21466;-75
2022/06/28 03:32:18;;;;;;;14.37;11.97;;;;;;;23.38;67.74;100835.44;1715191;82;21438;-75
2022/06/28 03:34:44;;;;;;;12.73;11.53;;;;;;;23.48;67.38;100835.59;1747858;80;21809;-74
2022/06/28 03:37:13;;;;;;;12.23;11.03;;;;;;;23.55;66.83;100843.43;1704102;81;20998;-74
2022/06/28 03:39:41;;;;;;;13.30;11.10;;;;;;;23.63;66.48;100835.73;1698515;82;21115;-74
2022/06/28 03:42:13;;;;;;;12.60;11.43;;;;;;;23.72;66.11;100839.73;1700324;82;21052;-73
2022/06/28 03:44:54;;;;;;;12.07;10.97;;;;;;;23.80;65.81;100837.49;1687290;82;21054;-74
2022/06/28 03:47:33;;;;;;;12.10;10.90;;;;;;;23.88;65.63;100842.03;1694886;82;21512;-74
2022/06/28 03:50:14;;;;;;;12.43;11.27;;;;;;;23.95;65.28;100831.91;1683894;82;21094;-74
2022/06/28 03:52:48;;;;;;;12.63;11.40;;;;;;;24.04;64.90;100835.34;1699430;82;21536;-73
2022/06/28 03:55:28;;;;;;;13.83;12.53;;;;;;;24.11;64.55;100838.28;1683153;83;21015;-75
2022/06/28 03:58:01;;;;;;;13.57;12.37;;;;;;;24.18;64.22;100841.02;1702647;81;21029;-74
2022/06/28 04:00:28;;;;;;;12.97;11.80;;;;;;;24.18;64.11;100845.11;1701770;82;21226;-74
2022/06/28 04:02:55;;;;;;;13.70;12.50;;;;;;;24.21;64.19;100842.48;1711388;83;21179;-75
2022/06/28 04:05:23;;;;;;;13.00;11.73;;;;;;;24.25;64.26;100840.69;1737635;82;21519;-74
2022/06/28 04:07:50;;;;;;;12.60;11.50;;;;;;;24.30;64.30;100846.47;1734675;80;21035;-73
2022/06/28 04:10:17;;;;;;;12.40;11.17;;;;;;;24.37;64.23;100842.59;1721741;83;21086;-74
2022/06/28 04:12:47;;;;;;;12.57;11.27;;;;;;;24.47;63.84;100841.36;1731352;81;21322;-74
2022/06/28 04:15:23;;;;;;;12.83;11.63;;;;;;;24.59;63.85;100841.92;1724967;81;21533;-74
2022/06/28 04:17:52;;;;;;;12.80;11.60;;;;;;;24.70;63.92;100837.55;1716759;80;21014;-76
2022/06/28 04:20:20;;;;;;;12.63;11.47;;;;;;;24.79;63.42;100839.58;1695070;82;21537;-76
2022/06/28 04:22:56;;;;;;;13.63;12.37;;;;;;;24.86;63.08;100834.89;1704326;82;21087;-75
2022/06/28 04:25:26;;;;;;;13.70;12.40;;;;;;;24.91;63.08;100833.27;1706695;82;21199;-75
2022/06/28 04:27:56;;;;;;;12.47;11.27;;;;;;;24.99;63.09;100826.30;1706751;82;21122;-74
2022/06/28 04:30:25;;;;;;;12.03;10.67;;;;;;;25.12;63.15;100831.75;1771287;81;20983;-74
2022/06/28 04:32:53;;;;;;;11.10;10.10;;;;;;;25.23;62.18;100826.77;1772859;80;21078;-74
2022/06/28 04:35:20;;;;;;;12.00;10.90;;;;;;;25.34;61.53;100825.72;1758198;80;21079;-74
2022/06/28 04:37:47;;;;;;;11.27;10.27;;;;;;;25.44;60.72;100820.30;1703342;83;21225;-74
2022/06/28 04:40:21;;;;;;;11.93;10.73;;;;;;;25.53;60.51;100819.54;1700378;84;21133;-74
2022/06/28 04:42:50;;;;;;;12.23;10.97;;;;;;;25.63;60.21;100825.06;1702588;84;21560;-75
2022/06/28 04:45:16;;;;;;;12.03;10.80;;;;;;;25.74;60.13;100827.51;1703715;83;21644;-74
2022/06/28 04:47:47;;;;;;;11.83;10.63;;;;;;;25.83;60.09;100825.42;1717126;82;21047;-75
2022/06/28 04:50:14;;;;;;;12.43;11.30;;;;;;;25.89;59.79;100832.77;1718733;82;21194;-74
2022/06/28 04:52:41;;;;;;;13.60;12.40;;;;;;;25.93;59.86;100828.98;1716972;82;21446;-74
2022/06/28 04:55:09;;;;;;;13.30;12.10;;;;;;;26.00;59.65;100830.31;1707279;83;21526;-74
2022/06/28 04:57:43;;;;;;;13.53;12.33;;;;;;;26.05;59.72;100827.29;1706546;84;21024;-73
2022/06/28 05:00:12;;;;;;;12.70;11.60;;;;;;;26.11;59.52;100821.77;1706760;82;21086;-73
2022/06/28 05:02:41;;;;;;;12.57;11.33;;;;;;;26.17;59.34;100817.61;1699308;82;23146;-75
2022/06/28 05:05:09;;;;;;;11.77;10.70;;;;;;;26.26;59.04;100823.69;1699702;82;20967;-75
2022/06/28 05:07:39;;;;;;;12.53;11.37;;;;;;;26.35;58.88;100813.88;1702993;82;21086;-72
2022/06/28 05:10:08;;;;;;;12.33;11.20;;;;;;;26.46;58.52;100817.67;1699654;82;20999;-74
2022/06/28 05:12:37;;;;;;;13.33;12.07;;;;;;;26.54;58.41;100823.53;1700464;82;20955;-75
2022/06/28 05:15:05;;;;;;;12.37;11.17;;;;;;;26.63;58.14;100821.96;1705155;82;21165;-75
2022/06/28 05:17:34;;;;;;;12.50;11.40;;;;;;;26.72;57.96;100820.36;1700900;82;21019;-74
2022/06/28 05:20:02;;;;;;;13.80;11.97;;;;;;;26.80;57.52;100827.59;1699493;82;21089;-73
2022/06/28 05:22:29;;;;;;;11.57;10.50;;;;;;;26.88;57.44;100822.45;1697590;82;21094;-74
2022/06/28 05:25:04;;;;;;;11.87;10.77;;;;;;;26.99;57.07;100819.36;1701128;81;22163;-73
2022/06/28 05:27:32;;;;;;;12.07;10.87;;;;;;;27.13;56.91;100814.17;1699497;82;21062;-73
2022/06/28 05:30:01;;;;;;;12.53;11.27;;;;;;;27.28;56.42;100814.45;1701833;82;21057;-74
2022/06/28 05:32:29;;;;;;;12.30;11.10;;;;;;;27.38;56.05;100816.59;1678960;82;21117;-74
2022/06/28 05:34:56;;;;;;;12.83;11.63;;;;;;;27.49;55.62;100809.91;1701776;82;21101;-74
2022/06/28 05:37:22;;;;;;;13.20;11.73;;;;;;;27.59;55.08;100810.67;1699665;82;21101;-74
2022/06/28 05:39:50;;;;;;;12.23;11.03;;;;;;;27.67;54.56;100809.62;1708958;82;21492;-74
2022/06/28 05:42:17;;;;;;;10.90;9.90;;;;;;;27.78;54.34;100808.47;1702062;84;21086;-74
2022/06/28 05:44:44;;;;;;;10.47;9.57;;;;;;;27.88;54.25;100800.98;1702515;84;21183;-75
2022/06/28 05:47:11;;;;;;;11.23;10.13;;;;;;;28.00;53.52;100798.59;1702665;84;21105;-75
2022/06/28 05:49:39;;;;;;;11.00;9.93;;;;;;;28.14;52.72;100796.07;1709516;82;21136;-74
2022/06/28 05:52:07;;;;;;;11.07;9.97;;;;;;;28.27;52.97;100799.39;1711516;83;21525;-73
2022/06/28 05:54:35;;;;;;;9.87;8.97;;;;;;;28.32;52.51;100801.01;1709957;82;21016;-73
2022/06/28 05:57:03;;;;;;;9.83;8.93;;;;;;;28.21;52.16;100797.54;1707729;84;21031;-74
2022/06/28 05:59:32;;;;;;;10.17;8.93;;;;;;;28.45;51.51;100796.31;1707750;84;21043;-74
2022/06/28 06:01:58;;;;;;;9.47;8.67;;;;;;;28.54;51.08;100804.28;1713539;82;21005;-75
2022/06/28 06:04:25;;;;;;;9.93;8.20;;;;;;;28.62;50.91;100803.20;1712532;83;21811;-75
2022/06/28 06:06:54;;;;;;;8.97;8.17;;;;;;;28.70;50.81;100804.09;1714214;82;21631;-76
2022/06/28 06:09:20;;;;;;;9.13;8.30;;;;;;;28.77;50.12;100806.92;1701151;83;21117;-75
2022/06/28 06:11:47;;;;;;;9.10;8.20;;;;;;;28.83;50.03;100802.67;1700669;82;21034;-76
2022/06/28 06:14:16;;;;;;;9.60;8.67;;;;;;;28.95;50.02;100805.73;1700597;82;21527;-75
2022/06/28 06:16:44;;;;;;;8.60;7.80;;;;;;;29.07;49.73;100801.97;1698745;82;21807;-75
2022/06/28 06:19:11;;;;;;;8.20;7.40;;;;;;;29.16;49.11;100804.62;1700990;82;21022;-76
2022/06/28 06:21:38;;;;;;;7.63;6.10;;;;;;;29.25;48.96;100798.80;1703458;82;21418;-76
2022/06/28 06:24:05;;;;;;;6.23;5.60;;;;;;;29.38;47.45;100799.31;1703857;82;21572;-75
2022/06/28 06:26:50;;;;;;;5.83;5.30;;;;;;;29.55;46.75;100795.14;1697898;82;21675;-75
2022/06/28 06:29:17;;;;;;;5.80;5.20;;;;;;;29.76;46.19;100791.81;1704444;82;22222;-75
2022/06/28 06:31:46;;;;;;;6.43;5.50;;;;;;;29.93;45.12;100795.27;1703336;82;21607;-74
2022/06/28 06:34:30;;;;;;;5.80;4.63;;;;;;;30.09;44.84;100790.84;1701897;82;21531;-73
2022/06/28 06:37:00;;;;;;;6.77;4.70;;;;;;;30.22;43.64;100789.97;1698758;82;21527;-76
2022/06/28 06:39:27;;;;;;;5.40;4.27;;;;;;;30.31;43.96;100783.53;1704861;82;21031;-76
2022/06/28 06:41:55;;;;;;;7.00;4.50;;;;;;;30.40;43.24;100782.56;1690909;82;21238;-75
2022/06/28 06:44:22;;;;;;;5.17;4.23;;;;;;;30.47;41.76;100781.80;1702127;82;21054;-75
2022/06/28 06:46:50;;;;;;;5.60;4.37;;;;;;;30.49;42.18;100779.46;1701279;82;21034;-75
2022/06/28 06:49:17;;;;;;;5.20;4.20;;;;;;;30.46;41.69;100785.16;1700826;82;21006;-75
2022/06/28 06:51:44;;;;;;;6.67;4.27;;;;;;;30.48;40.86;100780.05;1700702;82;21145;-73
2022/06/28 06:54:12;;;;;;;5.50;4.10;;;;;;;30.50;40.46;100780.44;1701489;82;21148;-72
2022/06/28 06:56:44;;;;;;;5.37;4.00;;;;;;;30.54;39.83;100784.02;1691987;82;21121;-73
2022/06/28 06:59:08;;;;;;;5.60;4.20;;;;;;;30.59;40.43;100781.47;1700259;82;21066;-73
2022/06/28 07:01:35;;;;;;;5.50;4.27;;;;;;;30.67;40.51;100787.22;1682105;82;21055;-73
2022/06/28 07:04:02;;;;;;;4.70;4.30;;;;;;;30.79;40.54;100786.09;1698732;82;21098;-74
2022/06/28 07:06:29;;;;;;;5.40;4.03;;;;;;;30.90;40.22;100791.06;1700818;82;21288;-74
2022/06/28 07:08:55;;;;;;;4.63;4.03;;;;;;;30.98;38.56;100782.98;1702335;82;21058;-77
2022/06/28 07:11:23;;;;;;;5.77;4.10;;;;;;;31.04;38.57;100788.33;1710898;82;20955;-75
2022/06/28 07:13:50;;;;;;;6.22;4.50;;;;;;;31.10;38.82;100781.03;1708776;82;21032;-75
2022/06/28 07:16:16;;;;;;;5.58;4.00;;;;;;;31.17;38.77;100781.06;1702433;82;21046;-76
2022/06/28 07:18:45;;;;;;;4.53;4.00;;;;;;;31.21;37.18;100784.61;1700529;81;20991;-75
2022/06/28 07:21:11;;;;;;;4.70;4.05;;;;;;;31.27;37.92;100780.28;1699235;82;21180;-74
2022/06/28 07:23:38;;;;;;;5.17;4.28;;;;;;;31.39;37.47;100776.36;1699773;81;21022;-75
2022/06/28 07:26:05;;;;;;;4.17;3.75;;;;;;;31.46;37.73;100775.79;1697897;82;21018;-75
2022/06/28 07:28:32;;;;;;;4.95;4.45;;;;;;;31.49;36.27;100768.10;1704692;82;21084;-74
2022/06/28 07:30:58;;;;;;;5.85;4.50;;;;;;;31.49;36.89;100783.84;1711365;83;21102;-74
2022/06/28 07:33:25;;;;;;;5.95;3.98;;;;;;;31.53;37.62;100784.06;1708108;82;21093;-75
2022/06/28 07:35:51;;;;;;;5.55;4.00;;;;;;;31.71;37.81;100784.64;1699609;82;21482;-75
2022/06/28 07:38:18;;;;;;;4.83;3.83;;;;;;;31.87;37.08;100788.38;1702248;82;21554;-76
2022/06/28 07:41:02;;;;;;;4.25;3.85;;;;;;;31.94;36.61;100791.14;1700775;82;20998;-77
2022/06/28 07:43:50;;;;;;;4.72;3.85;;;;;;;31.98;36.71;100795.50;1698178;82;21251;-73
2022/06/28 07:46:19;;;;;;;5.33;4.07;;;;;;;31.91;35.24;100788.58;1700480;81;22259;-73
2022/06/28 07:48:47;;;;;;;6.85;4.08;;;;;;;31.96;35.52;100795.09;1707300;82;21038;-75
2022/06/28 07:53:59;;;;;;;4.42;3.50;;;;;;;32.02;35.12;100789.96;1705775;82;21022;-75
2022/06/28 07:56:28;;;;;;;4.87;3.40;;;;;;;32.10;35.02;100796.25;1706241;82;21535;-74
2022/06/28 07:58:55;;;;;;;9.05;4.40;;;;;;;32.15;34.69;100792.49;1698650;82;21040;-75
2022/06/28 08:01:23;;;;;;;6.20;4.35;;;;;;;32.20;35.05;100794.83;1697974;82;21156;-74
2022/06/28 08:03:50;;;;;;;5.87;4.08;;;;;;;32.36;34.79;100790.24;1700923;82;21010;-77
2022/06/28 08:06:17;;;;;;;4.12;3.60;;;;;;;32.50;34.56;100790.80;1700569;82;21034;-73
2022/06/28 08:08:46;;;;;;;4.15;3.70;;;;;;;32.61;34.87;100797.66;1700965;82;21097;-79
2022/06/28 08:11:14;;;;;;;4.28;3.52;;;;;;;32.72;34.60;100787.95;1698577;82;21019;-74
2022/06/28 08:13:41;;;;;;;5.67;4.03;;;;;;;32.80;34.37;100792.24;1700729;82;21106;-75
2022/06/28 08:16:09;;;;;;;5.50;3.50;;;;;;;32.88;33.88;100791.03;1699351;82;21043;-75
2022/06/28 08:18:37;;;;;;;4.47;4.00;;;;;;;32.97;33.78;100794.74;1699224;81;21588;-74
2022/06/28 08:21:03;;;;;;;5.30;3.72;;;;;;;32.99;34.03;100789.60;1699450;82;21655;-78
2022/06/28 08:23:30;;;;;;;4.42;3.70;;;;;;;32.93;33.52;100785.05;1699358;82;21041;-76
2022/06/28 08:25:56;;;;;;;4.90;3.75;;;;;;;32.81;33.78;100786.92;1701087;81;21089;-75
2022/06/28 08:28:26;;;;;;;4.15;3.50;;;;;;;32.74;33.99;100783.57;1711554;83;20963;-74
2022/06/28 08:30:53;;;;;;;4.40;3.40;;;;;;;32.49;34.22;100778.78;1711568;83;20983;-76
2022/06/28 08:33:21;;;;;;;5.20;3.72;;;;;;;32.74;33.94;100778.64;1704223;82;21090;-75
2022/06/28 08:35:47;;;;;;;6.97;4.10;;;;;;;32.74;33.68;100780.02;1697923;82;21081;-77
2022/06/28 08:38:13;;;;;;;5.00;3.55;;;;;;;32.67;33.96;100780.84;1702916;82;21051;-75
2022/06/28 08:40:40;;;;;;;4.97;3.87;;;;;;;32.63;34.31;100787.00;1710627;83;20984;-74
2022/06/28 08:43:08;;;;;;;5.03;3.77;;;;;;;32.66;34.61;100777.90;1711472;83;21003;-75
2022/06/28 08:45:35;;;;;;;4.42;3.60;;;;;;;32.76;34.54;100772.91;1710685;82;21171;-75
2022/06/28 08:48:24;;;;;;;4.95;3.35;;;;;;;32.91;34.41;100773.63;1710579;83;21549;-75
2022/06/28 08:50:52;;;;;;;4.53;3.62;;;;;;;33.11;34.27;100772.53;1711313;83;21532;-75
2022/06/28 08:53:21;;;;;;;4.05;3.25;;;;;;;33.33;33.48;100768.41;1711358;83;21015;-74
2022/06/28 08:55:49;;;;;;;4.53;3.35;;;;;;;33.37;33.08;100765.00;1711466;83;21798;-74
2022/06/28 08:58:16;;;;;;;4.92;3.55;;;;;;;33.38;32.98;100762.41;1711442;83;21280;-81
2022/06/28 09:00:42;;;;;;;4.30;3.50;;;;;;;33.41;33.71;100766.36;1711499;83;21070;-74
2022/06/28 09:03:09;;;;;;;4.15;3.58;;;;;;;33.52;32.42;100766.28;1711464;83;21329;-74
2022/06/28 09:05:35;;;;;;;4.75;3.33;;;;;;;33.60;31.93;100761.67;1711457;83;21030;-74
2022/06/28 09:08:02;;;;;;;4.22;3.75;;;;;;;33.64;32.17;100765.00;1711243;83;20995;-74
2022/06/28 09:10:30;;;;;;;6.90;3.50;;;;;;;33.61;31.90;100756.31;1711387;83;21168;-75
2022/06/28 09:13:14;;;;;;;4.10;3.22;;;;;;;33.58;32.39;100752.19;1711588;83;21078;-75
2022/06/28 09:15:52;;;;;;;4.40;3.77;;;;;;;33.62;32.34;100750.16;1711603;83;21042;-74
2022/06/28 09:18:25;;;;;;;3.92;3.40;;;;;;;33.61;31.64;100754.14;1709395;83;21034;-75
2022/06/28 09:20:55;;;;;;;4.35;3.37;;;;;;;33.55;32.24;100748.25;1708713;83;21054;-77
2022/06/28 09:23:33;;;;;;;5.03;3.90;;;;;;;33.56;32.34;100746.27;1711346;83;21076;-74
2022/06/28 09:26:11;;;;;;;4.42;3.70;;;;;;;33.49;32.53;100746.34;1711404;83;20998;-76
2022/06/28 09:28:45;;;;;;;5.17;3.60;;;;;;;33.44;31.80;100742.61;1711126;83;21100;-75
2022/06/28 09:31:24;;;;;;;4.65;3.60;;;;;;;33.45;31.99;100747.72;1711335;83;21073;-76
2022/06/28 09:34:04;;;;;;;4.08;3.67;;;;;;;33.03;32.28;100736.39;1712263;83;22130;-75
2022/06/28 09:36:35;;;;;;;;;;;;;;;33.09;32.13;100744.46;1714685;83;21494;-78
2022/06/28 09:39:17;;;;;;;5.83;3.60;;;;;;;33.09;31.94;100744.46;1700456;83;20177;-75
2022/06/28 09:41:49;;;;;;;3.77;3.37;;;;;;;33.09;32.20;100731.41;1696950;82;21485;-75
2022/06/28 09:44:17;;;;;;;3.95;3.45;;;;;;;33.26;31.89;100735.22;1708800;82;21454;-75
2022/06/28 09:46:45;;;;;;;5.85;3.67;;;;;;;33.49;32.35;100731.10;1711639;83;21003;-75
2022/06/28 09:49:15;;;;;;;6.30;3.42;;;;;;;33.69;31.97;100730.70;1703483;82;21600;-75
2022/06/28 09:51:41;;;;;;;4.05;3.62;;;;;;;33.81;31.74;100728.02;1706584;82;21015;-76
2022/06/28 09:54:12;;;;;;;3.80;3.35;;;;;;;33.93;31.01;100715.63;1712491;83;20923;-74
2022/06/28 09:56:53;;;;;;;5.28;3.80;;;;;;;34.07;30.90;100725.18;1708208;82;21106;-76
2022/06/28 09:59:28;;;;;;;4.22;3.52;;;;;;;33.99;29.75;100714.76;1709802;81;21102;-77
2022/06/28 10:01:55;;;;;;;5.72;3.65;;;;;;;33.70;30.66;100721.81;1714996;82;21115;-75
2022/06/28 10:04:24;;;;;;;6.03;4.03;;;;;;;33.55;30.76;100725.31;1707554;82;21069;-74
2022/06/28 10:06:51;;;;;;;5.03;4.00;;;;;;;33.59;30.73;100715.76;1704828;82;21047;-75
2022/06/28 10:09:19;;;;;;;3.98;3.55;;;;;;;33.70;30.92;100717.66;1711294;83;20967;-75
2022/06/28 10:17:39;;;;;;;4.22;3.83;;;;;;;34.02;29.27;100707.61;1706809;82;21688;-75
2022/06/28 10:20:08;;;;;;;3.90;3.50;;;;;;;33.96;29.85;100710.05;1699443;82;21042;-73
2022/06/28 10:22:36;;;;;;;4.87;3.90;;;;;;;33.98;30.19;100702.69;1700751;82;21038;-75
2022/06/28 10:25:16;;;;;;;5.40;3.80;;;;;;;34.08;29.69;100692.88;1700796;82;21712;-74
2022/06/28 10:27:49;;;;;;;4.33;3.92;;;;;;;34.08;29.69;100692.88;1680458;82;21117;-76
2022/06/28 10:30:25;;;;;;;4.15;3.75;;;;;;;34.15;29.71;100691.22;1700719;82;21056;-76
2022/06/28 10:33:05;;;;;;;4.65;4.12;;;;;;;34.25;30.14;100685.53;1706097;82;21085;-76
2022/06/28 10:35:47;;;;;;;4.67;4.12;;;;;;;34.37;30.73;100675.88;1711709;83;21007;-74
2022/06/28 10:38:15;;;;;;;4.45;4.05;;;;;;;34.46;30.26;100682.30;1704756;83;21113;-74
2022/06/28 10:40:49;;;;;;;4.67;4.15;;;;;;;34.41;29.68;100682.76;1700914;82;21577;-73
2022/06/28 10:43:34;;;;;;;6.10;4.22;;;;;;;34.38;29.37;100691.30;1701656;82;21096;-74
2022/06/28 10:46:07;;;;;;;5.75;4.40;;;;;;;34.38;29.37;100691.30;1703105;82;21133;-75
2022/06/28 10:48:51;;;;;;;4.50;4.10;;;;;;;34.44;29.97;100684.09;1699627;82;21098;-75
2022/06/28 10:51:19;;;;;;;4.72;4.10;;;;;;;34.56;29.99;100670.90;1699695;82;21094;-75
2022/06/28 10:54:01;;;;;;;5.50;4.33;;;;;;;34.81;30.59;100682.38;1701071;82;21230;-75
2022/06/28 10:56:29;;;;;;;5.35;4.33;;;;;;;34.81;30.59;100682.38;1700396;82;21109;-75
2022/06/28 10:59:10;;;;;;;5.65;4.37;;;;;;;34.75;30.37;100687.64;1700482;82;21690;-75
2022/06/28 11:01:48;;;;;;;4.78;4.35;;;;;;;34.72;29.51;100679.38;1702951;81;21002;-76
2022/06/28 11:04:24;;;;;;;4.97;4.47;;;;;;;34.75;29.29;100675.77;1698880;82;21066;-74
2022/06/28 11:06:58;;;;;;;5.22;4.72;;;;;;;34.83;29.08;100670.27;1702258;82;21165;-73
2022/06/28 11:10:05;;;;;;;4.83;4.33;;;;;;;34.98;30.23;100663.89;1700665;82;21687;-73
2022/06/28 11:12:40;;;;;;;4.97;4.42;;;;;;;35.12;30.62;100663.67;1701464;81;21102;-74
2022/06/28 11:15:12;;;;;;;6.30;4.97;;;;;;;35.19;29.38;100668.31;1699031;82;21328;-73
2022/06/28 11:17:42;;;;;;;5.50;4.35;;;;;;;35.06;30.18;100671.52;1698290;82;20975;-76
2022/06/28 11:20:15;;;;;;;5.22;4.72;;;;;;;34.84;30.46;100669.66;1700322;82;21254;-76
2022/06/28 11:22:48;;;;;;;5.53;5.03;;;;;;;34.47;31.48;100659.69;1700266;82;21609;-75
2022/06/28 11:25:20;;;;;;;5.62;5.12;;;;;;;34.47;31.48;100659.69;1698320;82;21596;-73
2022/06/28 11:27:53;;;;;;;5.65;5.15;;;;;;;34.16;30.91;100658.94;1700190;82;21529;-72
2022/06/28 11:30:26;;;;;;;5.65;5.15;;;;;;;34.16;30.91;100658.94;1699783;82;21789;-75
2022/06/28 11:32:58;;;;;;;5.62;5.12;;;;;;;34.05;31.80;100663.22;1701184;83;21158;-74
2022/06/28 11:35:28;;;;;;;6.70;4.90;;;;;;;33.97;31.39;100661.72;1700857;82;21006;-75
2022/06/28 11:38:07;;;;;;;5.90;4.93;;;;;;;33.85;31.40;100658.89;1700531;82;21057;-73
2022/06/28 11:40:49;;;;;;;5.78;4.70;;;;;;;33.88;31.39;100659.27;1710272;83;21541;-75
2022/06/28 11:43:19;;;;;;;4.45;4.05;;;;;;;34.00;30.80;100651.80;1683087;85;21050;-76
2022/06/28 11:45:50;;;;;;;6.12;4.80;;;;;;;34.44;30.66;100646.66;1696553;82;21232;-74